createdAt,value
2023-01-22T00:00:34.473Z,0.80
2023-01-22T00:03:02.394Z,0.80
2023-01-22T00:05:30.082Z,0.90
2023-01-22T00:07:57.861Z,0.90
2023-01-22T00:10:25.581Z,1.00
2023-01-22T00:13:06.093Z,1.00
2023-01-22T00:15:41.257Z,1.30
2023-01-22T00:18:18.998Z,1.30
2023-01-22T00:20:58.546Z,1.30
2023-01-22T00:23:28.178Z,1.50
2023-01-22T00:26:13.730Z,1.40
2023-01-22T00:28:47.956Z,1.50
2023-01-22T00:31:18.177Z,1.50
2023-01-22T00:33:48.067Z,1.40
2023-01-22T00:36:22.996Z,1.40
2023-01-22T00:38:51.985Z,1.40
2023-01-22T00:41:22.711Z,1.30
2023-01-22T00:43:52.917Z,1.30
2023-01-22T00:46:21.244Z,1.40
2023-01-22T00:48:50.357Z,1.40
2023-01-22T00:51:18.961Z,1.30
2023-01-22T00:53:47.212Z,1.30
2023-01-22T00:56:17.488Z,1.30
2023-01-22T00:58:45.624Z,1.50
2023-01-22T01:01:17.221Z,1.50
2023-01-22T01:03:45.224Z,1.40
2023-01-22T01:06:22.275Z,1.30
2023-01-22T01:08:51.219Z,1.20
2023-01-22T01:11:25.322Z,1.20
2023-01-22T01:13:54.590Z,1.10
2023-01-22T01:16:31.680Z,1.10
2023-01-22T01:19:12.068Z,1.10
2023-01-22T01:21:40.093Z,1.10
2023-01-22T01:24:09.062Z,1.10
2023-01-22T01:26:37.543Z,1.10
2023-01-22T01:29:06.467Z,1.10
2023-01-22T01:31:34.385Z,1.10
2023-01-22T01:34:02.762Z,1.00
2023-01-22T01:36:47.748Z,1.10
2023-01-22T01:39:16.930Z,1.00
2023-01-22T01:41:44.835Z,1.10
2023-01-22T01:44:24.861Z,1.20
2023-01-22T01:47:08.698Z,1.10
2023-01-22T01:49:51.038Z,1.10
2023-01-22T01:52:21.446Z,1.00
2023-01-22T01:54:57.575Z,1.00
2023-01-22T01:57:33.921Z,1.00
2023-01-22T02:00:10.722Z,1.10
2023-01-22T02:02:41.665Z,1.20
2023-01-22T02:05:11.475Z,1.20
2023-01-22T02:07:39.442Z,1.10
2023-01-22T02:10:07.974Z,1.20
2023-01-22T02:12:37.853Z,1.20
2023-01-22T02:15:08.960Z,1.20
2023-01-22T02:17:37.221Z,1.10
2023-01-22T02:20:07.407Z,1.20
2023-01-22T02:22:40.330Z,1.30
2023-01-22T02:25:09.452Z,1.20
2023-01-22T02:27:39.096Z,1.30
2023-01-22T02:30:09.441Z,1.20
2023-01-22T02:32:37.353Z,1.20
2023-01-22T02:35:05.888Z,1.20
2023-01-22T02:37:33.684Z,1.30
2023-01-22T02:40:01.476Z,1.30
2023-01-22T02:42:29.190Z,1.10
2023-01-22T02:44:56.955Z,1.20
2023-01-22T02:47:24.785Z,1.20
2023-01-22T02:49:52.508Z,1.10
2023-01-22T02:52:20.245Z,1.20
2023-01-22T02:54:48.226Z,1.10
2023-01-22T02:57:15.772Z,1.30
2023-01-22T02:59:43.541Z,1.30
2023-01-22T03:02:12.455Z,1.20
2023-01-22T03:04:40.229Z,1.30
2023-01-22T03:07:10.211Z,1.40
2023-01-22T03:09:38.060Z,1.20
2023-01-22T03:12:06.360Z,1.30
2023-01-22T03:14:55.192Z,1.30
2023-01-22T03:17:42.443Z,1.30
2023-01-22T03:20:30.228Z,1.20
2023-01-22T03:22:57.883Z,1.20
2023-01-22T03:25:25.683Z,1.20
2023-01-22T03:28:16.588Z,1.20
2023-01-22T03:30:49.413Z,1.10
2023-01-22T03:33:17.459Z,1.10
2023-01-22T03:35:49.796Z,1.00
2023-01-22T03:38:21.254Z,1.00
2023-01-22T03:40:49.077Z,1.00
2023-01-22T03:43:16.722Z,1.00
2023-01-22T03:45:44.650Z,1.00
2023-01-22T03:48:15.522Z,1.00
2023-01-22T03:50:43.405Z,1.00
2023-01-22T03:53:11.212Z,1.00
2023-01-22T03:55:38.837Z,0.90
2023-01-22T03:58:06.551Z,0.90
2023-01-22T04:00:35.776Z,0.90
2023-01-22T04:03:06.517Z,0.80
2023-01-22T04:05:39.230Z,0.80
2023-01-22T04:08:07.130Z,0.80
2023-01-22T04:10:36.417Z,0.80
2023-01-22T04:13:05.427Z,0.90
2023-01-22T04:15:33.813Z,0.90
2023-01-22T04:18:07.792Z,0.80
2023-01-22T04:20:56.094Z,0.70
2023-01-22T04:23:42.048Z,0.60
2023-01-22T04:26:10.169Z,0.60
2023-01-22T04:28:38.008Z,0.70
2023-01-22T04:31:08.860Z,0.60
2023-01-22T04:33:42.425Z,0.50
2023-01-22T04:36:14.385Z,0.60
2023-01-22T04:38:43.300Z,0.60
2023-01-22T04:41:11.026Z,0.60
2023-01-22T04:43:39.211Z,0.60
2023-01-22T04:46:07.378Z,0.70
2023-01-22T04:48:35.162Z,0.80
2023-01-22T04:51:03.478Z,0.80
2023-01-22T04:53:33.094Z,0.70
2023-01-22T04:56:01.655Z,0.70
2023-01-22T04:58:29.485Z,0.80
2023-01-22T05:01:00.557Z,0.70
2023-01-22T05:03:28.348Z,0.70
2023-01-22T05:05:56.825Z,0.70
2023-01-22T05:08:24.568Z,0.70
2023-01-22T05:10:52.251Z,0.90
2023-01-22T05:13:26.223Z,0.80
2023-01-22T05:15:54.424Z,0.70
2023-01-22T05:18:24.187Z,0.70
2023-01-22T05:20:53.191Z,0.70
2023-01-22T05:23:23.430Z,0.70
2023-01-22T05:25:51.921Z,0.70
2023-01-22T05:28:27.503Z,0.70
2023-01-22T05:31:18.333Z,0.70
2023-01-22T05:33:57.153Z,0.70
2023-01-22T05:36:24.994Z,0.70
2023-01-22T05:38:55.882Z,0.70
2023-01-22T05:41:24.487Z,0.70
2023-01-22T05:43:54.256Z,0.70
2023-01-22T05:46:26.731Z,0.70
2023-01-22T05:49:07.502Z,0.80
2023-01-22T05:51:35.878Z,0.70
2023-01-22T05:54:04.288Z,0.80
2023-01-22T05:56:34.918Z,0.90
2023-01-22T05:59:02.941Z,0.90
2023-01-22T06:01:30.707Z,1.00
2023-01-22T06:04:00.125Z,0.90
2023-01-22T06:06:28.173Z,0.90
2023-01-22T06:08:56.954Z,1.00
2023-01-22T06:11:28.396Z,1.00
2023-01-22T06:13:56.369Z,1.10
2023-01-22T06:16:24.295Z,1.00
2023-01-22T06:19:12.781Z,0.90
2023-01-22T06:21:45.309Z,0.80
2023-01-22T06:24:14.989Z,0.80
2023-01-22T06:26:43.868Z,0.70
2023-01-22T06:29:16.391Z,0.70
2023-01-22T06:31:48.059Z,0.80
2023-01-22T06:34:21.074Z,0.80
2023-01-22T06:36:51.702Z,0.70
2023-01-22T06:39:23.110Z,0.70
2023-01-22T06:42:01.766Z,0.70
2023-01-22T06:44:32.541Z,0.80
2023-01-22T06:47:01.717Z,0.80
2023-01-22T06:49:34.462Z,0.80
2023-01-22T06:52:08.639Z,0.90
2023-01-22T06:54:36.972Z,0.90
2023-01-22T06:57:05.663Z,0.80
2023-01-22T06:59:37.288Z,0.70
2023-01-22T07:02:05.557Z,0.70
2023-01-22T07:04:33.401Z,0.60
2023-01-22T07:07:01.028Z,0.60
2023-01-22T07:09:28.760Z,0.60
2023-01-22T07:11:58.667Z,0.70
2023-01-22T07:14:36.504Z,0.60
2023-01-22T07:17:05.238Z,0.70
2023-01-22T07:19:32.953Z,0.60
2023-01-22T07:22:00.629Z,0.60
2023-01-22T07:24:29.170Z,0.60
2023-01-22T07:26:56.830Z,0.60
2023-01-22T07:29:24.506Z,0.60
2023-01-22T07:31:52.280Z,0.60
2023-01-22T07:34:20.278Z,0.60
2023-01-22T07:36:48.066Z,0.70
2023-01-22T07:39:15.834Z,0.70
2023-01-22T07:41:43.607Z,0.70
2023-01-22T07:44:12.876Z,0.70
2023-01-22T07:46:40.717Z,0.60
2023-01-22T07:49:08.646Z,0.60
2023-01-22T07:51:36.509Z,0.60
2023-01-22T07:54:04.632Z,0.60
2023-01-22T07:56:32.470Z,0.70
2023-01-22T07:59:00.965Z,0.60
2023-01-22T08:01:28.707Z,0.60
2023-01-22T08:03:57.553Z,0.70
2023-01-22T08:06:25.229Z,0.60
2023-01-22T08:08:52.988Z,0.60
2023-01-22T08:11:20.936Z,0.60
2023-01-22T08:13:48.676Z,0.70
2023-01-22T08:16:16.517Z,0.70
2023-01-22T08:18:44.309Z,0.70
2023-01-22T08:21:12.554Z,0.70
2023-01-22T08:23:40.456Z,0.70
2023-01-22T08:26:08.322Z,0.80
2023-01-22T08:28:38.755Z,0.70
2023-01-22T08:31:11.290Z,0.70
2023-01-22T08:33:44.213Z,0.70
2023-01-22T08:36:12.395Z,0.80
2023-01-22T08:38:40.017Z,0.80
2023-01-22T08:41:07.749Z,0.80
2023-01-22T08:43:35.694Z,0.80
2023-01-22T08:46:03.360Z,0.70
2023-01-22T08:48:31.086Z,0.70
2023-01-22T08:51:02.060Z,0.70
2023-01-22T08:53:30.687Z,0.70
2023-01-22T08:55:58.437Z,0.70
2023-01-22T08:58:27.954Z,0.80
2023-01-22T09:00:55.863Z,0.80
2023-01-22T09:03:24.823Z,0.80
2023-01-22T09:05:52.570Z,0.80
2023-01-22T09:08:21.781Z,0.80
2023-01-22T09:10:49.425Z,0.90
2023-01-22T09:13:17.043Z,0.90
2023-01-22T09:15:44.789Z,0.80
2023-01-22T09:18:12.405Z,0.90
2023-01-22T09:20:40.189Z,0.90
2023-01-22T09:23:08.372Z,0.90
2023-01-22T09:25:36.342Z,0.90
2023-01-22T09:28:07.290Z,0.90
2023-01-22T09:30:39.523Z,0.80
2023-01-22T09:33:07.508Z,1.00
2023-01-22T09:35:35.265Z,1.10
2023-01-22T09:38:05.792Z,1.00
2023-01-22T09:40:59.018Z,1.10
2023-01-22T09:43:56.249Z,1.20
2023-01-22T09:46:56.223Z,0.90
2023-01-22T09:49:56.290Z,1.00
2023-01-22T09:52:32.368Z,1.00
2023-01-22T09:55:00.923Z,0.90
2023-01-22T09:57:32.474Z,1.00
2023-01-22T10:00:00.642Z,1.10
2023-01-22T10:02:55.522Z,1.30
2023-01-22T10:05:52.912Z,1.20
2023-01-22T10:08:40.214Z,1.10
2023-01-22T10:11:10.948Z,1.20
2023-01-22T10:13:40.956Z,1.20
2023-01-22T10:16:12.254Z,1.30
2023-01-22T10:19:45.468Z,1.30
2023-01-22T10:22:24.220Z,1.30
2023-01-22T10:24:53.907Z,1.30
2023-01-22T10:27:44.309Z,1.20
2023-01-22T10:30:15.206Z,1.30
2023-01-22T10:32:43.451Z,1.40
2023-01-22T10:35:24.386Z,1.50
2023-01-22T10:37:57.966Z,1.40
2023-01-22T10:40:43.347Z,1.40
2023-01-22T10:43:17.835Z,1.50
2023-01-22T10:46:05.191Z,1.60
2023-01-22T10:48:34.412Z,1.50
2023-01-22T10:51:27.671Z,1.60
2023-01-22T10:53:58.527Z,1.60
2023-01-22T10:56:40.425Z,1.70
2023-01-22T10:59:30.798Z,1.70
2023-01-22T11:02:26.648Z,1.70
2023-01-22T11:04:54.780Z,1.70
2023-01-22T11:07:32.980Z,1.60
2023-01-22T11:10:32.041Z,1.60
2023-01-22T11:14:04.593Z,1.50
2023-01-22T11:16:40.322Z,1.70
2023-01-22T11:19:36.020Z,1.70
2023-01-22T11:22:23.282Z,1.80
2023-01-22T11:24:51.372Z,1.70
2023-01-22T11:28:12.519Z,1.70
2023-01-22T11:31:40.628Z,1.60
2023-01-22T11:34:50.667Z,1.80
2023-01-22T11:37:46.567Z,1.80
2023-01-22T11:40:30.931Z,2.00
2023-01-22T11:44:12.466Z,2.00
2023-01-22T11:47:14.127Z,2.10
2023-01-22T11:50:41.189Z,2.00
2023-01-22T11:54:20.002Z,2.00
2023-01-22T11:57:18.171Z,2.00
2023-01-22T12:01:09.186Z,2.00
2023-01-22T12:03:51.725Z,2.00
2023-01-22T12:07:08.913Z,1.90
2023-01-22T12:09:48.574Z,2.10
2023-01-22T12:13:21.093Z,2.20
2023-01-22T12:17:13.239Z,2.00
2023-01-22T12:20:47.142Z,2.00
2023-01-22T12:23:47.855Z,1.90
2023-01-22T12:26:29.821Z,2.00
2023-01-22T12:29:29.536Z,1.90
2023-01-22T12:32:15.595Z,2.00
2023-01-22T12:35:16.704Z,2.00
2023-01-22T12:38:21.663Z,2.00
2023-01-22T12:41:16.043Z,2.10
2023-01-22T12:44:15.611Z,2.10
2023-01-22T12:47:11.231Z,2.10
2023-01-22T12:49:54.022Z,2.10
2023-01-22T12:52:41.065Z,2.30
2023-01-22T12:55:44.140Z,2.30
2023-01-22T12:58:28.806Z,2.20
2023-01-22T13:01:09.714Z,2.50
2023-01-22T13:03:49.612Z,2.50
2023-01-22T13:06:47.083Z,2.60
2023-01-22T13:09:29.219Z,2.60
2023-01-22T13:12:11.479Z,2.70
2023-01-22T13:14:43.397Z,2.60
2023-01-22T13:17:30.741Z,2.60
2023-01-22T13:20:01.959Z,2.60
2023-01-22T13:22:31.991Z,2.60
2023-01-22T13:25:00.477Z,2.50
2023-01-22T13:27:37.657Z,2.80
2023-01-22T13:30:16.074Z,2.90
2023-01-22T13:32:44.519Z,2.90
2023-01-22T13:35:19.783Z,2.80
2023-01-22T13:37:52.150Z,2.80
2023-01-22T13:40:31.545Z,2.90
2023-01-22T13:43:02.757Z,2.90
2023-01-22T13:45:34.039Z,2.90
2023-01-22T13:48:06.519Z,2.80
2023-01-22T13:50:36.620Z,2.80
2023-01-22T13:53:04.696Z,2.80
2023-01-22T13:55:34.922Z,2.80
2023-01-22T13:58:04.483Z,2.70
2023-01-22T14:00:37.203Z,2.60
2023-01-22T14:03:25.970Z,2.80
2023-01-22T14:06:17.001Z,2.70
2023-01-22T14:08:59.481Z,2.60
2023-01-22T14:11:43.357Z,2.60
2023-01-22T14:14:21.609Z,2.50
2023-01-22T14:16:53.064Z,2.50
2023-01-22T14:19:21.333Z,2.50
2023-01-22T14:21:49.084Z,2.50
2023-01-22T14:24:16.849Z,2.50
2023-01-22T14:26:44.551Z,2.50
2023-01-22T14:29:12.357Z,2.30
2023-01-22T14:31:40.462Z,2.30
2023-01-22T14:34:11.427Z,2.30
2023-01-22T14:36:39.898Z,2.40
2023-01-22T14:39:07.555Z,2.30
2023-01-22T14:41:35.565Z,2.30
2023-01-22T14:44:04.342Z,2.20
2023-01-22T14:46:32.356Z,2.20
2023-01-22T14:49:01.979Z,2.30
2023-01-22T14:51:30.065Z,2.30
2023-01-22T14:54:01.983Z,2.10
2023-01-22T14:56:29.739Z,2.00
2023-01-22T14:58:57.358Z,2.00
2023-01-22T15:01:25.189Z,2.00
2023-01-22T15:03:54.285Z,1.90
2023-01-22T15:06:24.043Z,1.80
2023-01-22T15:08:51.800Z,1.90
2023-01-22T15:11:19.601Z,2.10
2023-01-22T15:13:47.741Z,2.00
2023-01-22T15:16:15.806Z,2.00
2023-01-22T15:18:43.944Z,2.00
2023-01-22T15:21:11.621Z,2.00
2023-01-22T15:23:39.656Z,1.90
2023-01-22T15:26:33.483Z,1.90
2023-01-22T15:29:05.705Z,1.90
2023-01-22T15:31:34.997Z,1.90
2023-01-22T15:34:04.239Z,1.90
2023-01-22T15:36:36.901Z,1.90
2023-01-22T15:39:04.725Z,1.90
2023-01-22T15:41:37.031Z,1.80
2023-01-22T15:44:07.231Z,1.80
2023-01-22T15:46:42.486Z,1.70
2023-01-22T15:49:12.479Z,1.70
2023-01-22T15:51:41.879Z,1.70
2023-01-22T15:54:16.922Z,2.00
2023-01-22T15:56:44.903Z,2.10
2023-01-22T15:59:13.554Z,2.10
2023-01-22T16:01:41.667Z,2.20
2023-01-22T16:04:10.654Z,2.20
2023-01-22T16:06:39.043Z,2.20
2023-01-22T16:09:07.900Z,2.10
2023-01-22T16:11:36.612Z,2.10
2023-01-22T16:14:04.603Z,2.20
2023-01-22T16:16:38.340Z,2.10
2023-01-22T16:19:11.090Z,2.10
2023-01-22T16:21:39.031Z,2.10
2023-01-22T16:24:07.751Z,2.10
2023-01-22T16:26:36.632Z,2.20
2023-01-22T16:29:06.857Z,2.30
2023-01-22T16:31:37.146Z,2.20
2023-01-22T16:34:18.062Z,2.20
2023-01-22T16:36:46.366Z,2.20
2023-01-22T16:39:25.122Z,2.20
2023-01-22T16:41:54.372Z,2.20
2023-01-22T16:44:26.262Z,2.10
2023-01-22T16:46:59.980Z,2.20
2023-01-22T16:49:34.050Z,2.20
2023-01-22T16:52:22.010Z,2.10
2023-01-22T16:54:51.974Z,2.10
2023-01-22T16:57:20.327Z,2.20
2023-01-22T16:59:48.263Z,2.10
2023-01-22T17:02:19.327Z,2.20
2023-01-22T17:04:47.308Z,2.20
2023-01-22T17:07:31.540Z,2.10
2023-01-22T17:10:02.512Z,2.10
2023-01-22T17:12:30.531Z,2.10
2023-01-22T17:14:59.874Z,2.00
2023-01-22T17:17:27.781Z,2.10
2023-01-22T17:19:55.781Z,2.10
2023-01-22T17:22:24.350Z,2.30
2023-01-22T17:24:52.725Z,2.30
2023-01-22T17:27:21.646Z,2.30
2023-01-22T17:29:49.670Z,2.40
2023-01-22T17:32:17.515Z,2.30
2023-01-22T17:34:45.182Z,2.30
2023-01-22T17:37:13.803Z,2.30
2023-01-22T17:39:43.108Z,2.30
2023-01-22T17:42:11.185Z,2.20
2023-01-22T17:44:40.307Z,2.30
2023-01-22T17:47:08.413Z,2.20
2023-01-22T17:49:37.204Z,2.30
2023-01-22T17:52:05.803Z,2.30
2023-01-22T17:54:33.578Z,2.30
2023-01-22T17:57:01.624Z,2.30
2023-01-22T17:59:29.878Z,2.40
2023-01-22T18:01:59.887Z,2.40
2023-01-22T18:04:31.187Z,2.30
2023-01-22T18:06:58.926Z,2.20
2023-01-22T18:09:26.899Z,2.20
2023-01-22T18:11:57.937Z,2.20
2023-01-22T18:14:30.347Z,2.40
2023-01-22T18:16:58.305Z,2.30
2023-01-22T18:19:26.663Z,2.50
2023-01-22T18:21:54.839Z,2.40
2023-01-22T18:24:24.365Z,2.40
2023-01-22T18:26:54.476Z,2.40
2023-01-22T18:29:22.309Z,2.40
2023-01-22T18:31:50.123Z,2.40
2023-01-22T18:34:17.977Z,2.50
2023-01-22T18:36:46.147Z,2.40
2023-01-22T18:39:19.050Z,2.40
2023-01-22T18:41:50.799Z,2.40
2023-01-22T18:44:22.350Z,2.50
2023-01-22T18:46:57.040Z,2.50
2023-01-22T18:49:28.185Z,2.60
2023-01-22T18:51:59.388Z,2.50
2023-01-22T18:54:29.161Z,2.50
2023-01-22T18:56:57.241Z,2.60
2023-01-22T18:59:25.534Z,2.50
2023-01-22T19:01:53.422Z,2.40
2023-01-22T19:04:22.143Z,2.60
2023-01-22T19:06:55.211Z,2.50
2023-01-22T19:09:23.480Z,2.40
2023-01-22T19:11:52.479Z,2.30
2023-01-22T19:14:21.963Z,2.40
2023-01-22T19:16:54.534Z,2.40
2023-01-22T19:19:23.523Z,2.50
2023-01-22T19:21:56.232Z,2.50
2023-01-22T19:24:26.750Z,2.60
2023-01-22T19:26:57.256Z,2.70
2023-01-22T19:29:26.822Z,2.50
2023-01-22T19:31:57.311Z,2.50
2023-01-22T19:34:29.783Z,2.50
2023-01-22T19:37:02.651Z,2.40
2023-01-22T19:39:31.492Z,2.60
2023-01-22T19:42:03.253Z,2.60
2023-01-22T19:44:34.534Z,2.50
2023-01-22T19:47:03.676Z,2.60
2023-01-22T19:49:32.541Z,2.50
2023-01-22T19:52:00.282Z,2.50
2023-01-22T19:54:28.180Z,2.40
2023-01-22T19:56:56.198Z,2.40
2023-01-22T19:59:25.574Z,2.40
2023-01-22T20:01:53.454Z,2.40
2023-01-22T20:04:33.621Z,2.40
2023-01-22T20:07:07.885Z,2.50
2023-01-22T20:09:38.185Z,2.40
2023-01-22T20:12:08.740Z,2.30
2023-01-22T20:14:43.868Z,2.40
2023-01-22T20:17:15.418Z,2.50
2023-01-22T20:19:43.376Z,2.50
2023-01-22T20:22:11.464Z,2.50
2023-01-22T20:24:41.751Z,2.50
2023-01-22T20:27:11.084Z,2.50
2023-01-22T20:29:40.711Z,2.60
2023-01-22T20:32:08.525Z,2.50
2023-01-22T20:34:36.350Z,2.60
2023-01-22T20:37:04.467Z,2.50
2023-01-22T20:39:32.474Z,2.60
2023-01-22T20:42:00.241Z,2.60
2023-01-22T20:44:28.359Z,2.50
2023-01-22T20:46:57.395Z,2.60
2023-01-22T20:49:25.239Z,2.60
2023-01-22T20:51:53.460Z,2.60
2023-01-22T20:54:21.405Z,2.70
2023-01-22T20:56:50.429Z,2.70
2023-01-22T20:59:20.900Z,2.60
2023-01-22T21:01:49.534Z,2.70
2023-01-22T21:04:18.519Z,2.70
2023-01-22T21:06:47.939Z,2.70
2023-01-22T21:09:15.745Z,2.70
2023-01-22T21:11:44.905Z,2.70
2023-01-22T21:14:17.942Z,2.80
2023-01-22T21:16:46.805Z,2.80
2023-01-22T21:19:24.444Z,2.80
2023-01-22T21:21:55.487Z,2.80
2023-01-22T21:24:25.147Z,2.80
2023-01-22T21:26:53.690Z,2.70
2023-01-22T21:29:24.474Z,2.70
2023-01-22T21:31:54.349Z,2.70
2023-01-22T21:34:26.401Z,2.70
2023-01-22T21:36:58.810Z,2.60
2023-01-22T21:39:30.624Z,2.50
2023-01-22T21:42:17.270Z,2.50
2023-01-22T21:45:04.367Z,2.60
2023-01-22T21:47:32.519Z,2.60
2023-01-22T21:50:00.559Z,2.60
2023-01-22T21:52:28.498Z,2.60
2023-01-22T21:54:57.026Z,2.60
2023-01-22T21:57:25.404Z,2.60
2023-01-22T21:59:53.258Z,2.50
2023-01-22T22:02:21.628Z,2.60
2023-01-22T22:04:49.838Z,2.60
2023-01-22T22:07:18.417Z,2.60
2023-01-22T22:09:46.084Z,2.60
2023-01-22T22:12:13.793Z,2.70
2023-01-22T22:14:42.160Z,2.70
2023-01-22T22:17:09.982Z,2.70
2023-01-22T22:19:37.890Z,2.60
2023-01-22T22:22:08.891Z,2.50
2023-01-22T22:24:36.685Z,2.60
2023-01-22T22:27:06.103Z,2.50
2023-01-22T22:29:35.600Z,2.60
2023-01-22T22:32:03.877Z,2.50
2023-01-22T22:34:31.657Z,2.40
2023-01-22T22:36:59.525Z,2.40
2023-01-22T22:39:28.076Z,2.50
2023-01-22T22:41:55.862Z,2.40
2023-01-22T22:44:23.798Z,2.30
2023-01-22T22:46:55.990Z,2.30
2023-01-22T22:49:24.201Z,2.50
2023-01-22T22:51:52.436Z,2.60
2023-01-22T22:54:21.339Z,2.60
2023-01-22T22:56:51.371Z,2.50
2023-01-22T22:59:21.070Z,2.50
2023-01-22T23:01:51.315Z,2.60
2023-01-22T23:04:19.254Z,2.60
2023-01-22T23:06:48.243Z,2.70
2023-01-22T23:09:21.241Z,2.60
2023-01-22T23:11:56.250Z,2.60
2023-01-22T23:14:25.344Z,2.50
2023-01-22T23:16:54.050Z,2.50
2023-01-22T23:19:27.437Z,2.40
2023-01-22T23:22:00.774Z,2.50
2023-01-22T23:24:29.903Z,2.50
2023-01-22T23:26:57.961Z,2.60
2023-01-22T23:29:29.581Z,2.70
2023-01-22T23:31:57.683Z,2.80
2023-01-22T23:34:25.614Z,2.60
2023-01-22T23:36:53.514Z,2.60
2023-01-22T23:39:23.544Z,2.60
2023-01-22T23:41:53.431Z,2.50
2023-01-22T23:44:21.171Z,2.70
2023-01-22T23:46:51.244Z,2.80
2023-01-22T23:49:20.350Z,2.90
2023-01-22T23:51:49.937Z,2.90
2023-01-22T23:54:18.972Z,2.90
2023-01-22T23:56:47.164Z,2.80
2023-01-22T23:59:14.890Z,2.90
